sensor_id;sensor_type;location;lat;lon;timestamp;P1;P2;P0
46044;PMS7003;31781;54.094;13.428;2023-05-02T00:01:29;4.50;3.75;3.00
46044;PMS7003;31781;54.094;13.428;2023-05-02T00:03:31;6.00;4.25;3.00
46044;PMS7003;31781;54.094;13.428;2023-05-02T00:05:33;5.50;4.00;3.00
46044;PMS7003;31781;54.094;13.428;2023-05-02T00:07:35;3.25;3.25;3.25
46044;PMS7003;31781;54.094;13.428;2023-05-02T00:09:36;5.50;4.00;3.50
46044;PMS7003;31781;54.094;13.428;2023-05-02T00:11:38;4.00;4.00;3.00
46044;PMS7003;31781;54.094;13.428;2023-05-02T00:13:42;7.50;5.00;4.00
46044;PMS7003;31781;54.094;13.428;2023-05-02T00:15:44;4.00;4.00;3.00
46044;PMS7003;31781;54.094;13.428;2023-05-02T00:17:46;4.75;3.00;2.50
46044;PMS7003;31781;54.094;13.428;2023-05-02T00:19:48;4.25;4.25;3.25
46044;PMS7003;31781;54.094;13.428;2023-05-02T00:21:49;5.00;3.25;3.00
46044;PMS7003;31781;54.094;13.428;2023-05-02T00:23:51;3.00;3.00;3.00
46044;PMS7003;31781;54.094;13.428;2023-05-02T00:25:53;3.00;3.00;3.00
46044;PMS7003;31781;54.094;13.428;2023-05-02T00:27:55;3.75;3.75;3.00
46044;PMS7003;31781;54.094;13.428;2023-05-02T00:29:58;5.00;5.00;3.00
46044;PMS7003;31781;54.094;13.428;2023-05-02T00:32:01;1.75;1.75;1.75
46044;PMS7003;31781;54.094;13.428;2023-05-02T00:34:02;3.50;2.00;2.00
46044;PMS7003;31781;54.094;13.428;2023-05-02T00:36:11;3.50;2.75;2.00
46044;PMS7003;31781;54.094;13.428;2023-05-02T00:38:14;4.00;4.00;3.00
46044;PMS7003;31781;54.094;13.428;2023-05-02T00:40:15;3.75;3.75;3.00
46044;PMS7003;31781;54.094;13.428;2023-05-02T00:42:17;3.00;3.00;2.50
46044;PMS7003;31781;54.094;13.428;2023-05-02T00:44:19;4.25;4.25;3.25
46044;PMS7003;31781;54.094;13.428;2023-05-02T00:46:22;4.00;4.00;3.00
46044;PMS7003;31781;54.094;13.428;2023-05-02T00:48:24;3.00;3.00;2.50
46044;PMS7003;31781;54.094;13.428;2023-05-02T00:50:26;6.75;3.75;2.75
46044;PMS7003;31781;54.094;13.428;2023-05-02T00:52:29;3.00;3.00;2.00
46044;PMS7003;31781;54.094;13.428;2023-05-02T00:54:31;2.75;2.75;2.00
46044;PMS7003;31781;54.094;13.428;2023-05-02T00:56:33;4.00;4.00;3.25
46044;PMS7003;31781;54.094;13.428;2023-05-02T00:58:35;2.75;2.75;2.75
46044;PMS7003;31781;54.094;13.428;2023-05-02T01:00:43;5.00;3.75;3.00
46044;PMS7003;31781;54.094;13.428;2023-05-02T01:02:57;4.50;4.00;3.00
46044;PMS7003;31781;54.094;13.428;2023-05-02T01:05:10;5.00;5.00;3.75
46044;PMS7003;31781;54.094;13.428;2023-05-02T01:07:21;4.00;4.00;3.50
46044;PMS7003;31781;54.094;13.428;2023-05-02T01:09:48;4.00;4.00;3.25
46044;PMS7003;31781;54.094;13.428;2023-05-02T01:11:59;3.00;3.00;3.00
46044;PMS7003;31781;54.094;13.428;2023-05-02T01:14:02;5.75;3.50;3.00
46044;PMS7003;31781;54.094;13.428;2023-05-02T01:16:09;5.25;3.00;1.75
46044;PMS7003;31781;54.094;13.428;2023-05-02T01:18:14;5.00;4.00;3.00
46044;PMS7003;31781;54.094;13.428;2023-05-02T01:20:19;3.25;3.25;3.00
46044;PMS7003;31781;54.094;13.428;2023-05-02T01:22:23;4.00;4.00;4.00
46044;PMS7003;31781;54.094;13.428;2023-05-02T01:24:29;5.25;4.50;3.25
46044;PMS7003;31781;54.094;13.428;2023-05-02T01:26:39;3.75;3.75;3.00
46044;PMS7003;31781;54.094;13.428;2023-05-02T01:29:06;3.00;3.00;3.00
46044;PMS7003;31781;54.094;13.428;2023-05-02T01:31:09;3.00;3.00;2.50
46044;PMS7003;31781;54.094;13.428;2023-05-02T01:33:13;4.00;4.00;3.00
46044;PMS7003;31781;54.094;13.428;2023-05-02T01:35:17;3.75;1.00;0.50
46044;PMS7003;31781;54.094;13.428;2023-05-02T01:37:21;4.25;4.25;3.25
46044;PMS7003;31781;54.094;13.428;2023-05-02T01:39:25;3.00;3.00;3.00
46044;PMS7003;31781;54.094;13.428;2023-05-02T01:41:28;2.00;2.00;1.50
46044;PMS7003;31781;54.094;13.428;2023-05-02T01:43:32;3.50;3.50;3.00
46044;PMS7003;31781;54.094;13.428;2023-05-02T01:45:38;4.75;3.25;3.25
46044;PMS7003;31781;54.094;13.428;2023-05-02T01:47:44;3.75;3.25;2.00
46044;PMS7003;31781;54.094;13.428;2023-05-02T01:49:46;6.00;3.50;2.75
46044;PMS7003;31781;54.094;13.428;2023-05-02T01:51:48;1.00;1.00;1.00
46044;PMS7003;31781;54.094;13.428;2023-05-02T01:53:52;4.00;4.00;3.00
46044;PMS7003;31781;54.094;13.428;2023-05-02T01:55:54;5.25;3.50;3.00
46044;PMS7003;31781;54.094;13.428;2023-05-02T01:57:59;4.50;4.50;4.00
46044;PMS7003;31781;54.094;13.428;2023-05-02T02:00:02;3.50;3.50;3.00
46044;PMS7003;31781;54.094;13.428;2023-05-02T02:02:07;4.75;4.75;3.75
46044;PMS7003;31781;54.094;13.428;2023-05-02T02:04:12;3.50;3.50;2.50
46044;PMS7003;31781;54.094;13.428;2023-05-02T02:06:15;6.00;6.00;4.50
46044;PMS7003;31781;54.094;13.428;2023-05-02T02:08:20;4.00;4.00;3.25
46044;PMS7003;31781;54.094;13.428;2023-05-02T02:10:21;4.00;4.00;3.50
46044;PMS7003;31781;54.094;13.428;2023-05-02T02:12:27;5.75;5.75;4.00
46044;PMS7003;31781;54.094;13.428;2023-05-02T02:14:33;2.75;2.75;2.25
46044;PMS7003;31781;54.094;13.428;2023-05-02T02:16:37;4.00;4.00;3.00
46044;PMS7003;31781;54.094;13.428;2023-05-02T02:18:43;5.00;5.00;3.25
46044;PMS7003;31781;54.094;13.428;2023-05-02T02:20:45;4.00;4.00;3.00
46044;PMS7003;31781;54.094;13.428;2023-05-02T02:22:48;3.00;3.00;2.00
46044;PMS7003;31781;54.094;13.428;2023-05-02T02:24:52;5.00;5.00;4.25
46044;PMS7003;31781;54.094;13.428;2023-05-02T02:26:54;4.75;4.75;3.50
46044;PMS7003;31781;54.094;13.428;2023-05-02T02:28:56;5.00;5.00;4.00
46044;PMS7003;31781;54.094;13.428;2023-05-02T02:30:58;5.50;4.50;4.00
46044;PMS7003;31781;54.094;13.428;2023-05-02T02:33:00;3.25;3.25;3.00
46044;PMS7003;31781;54.094;13.428;2023-05-02T02:35:03;4.00;4.00;3.00
46044;PMS7003;31781;54.094;13.428;2023-05-02T02:37:11;5.00;5.00;4.00
46044;PMS7003;31781;54.094;13.428;2023-05-02T02:39:20;4.00;4.00;3.00
46044;PMS7003;31781;54.094;13.428;2023-05-02T02:41:37;5.00;5.00;3.75
46044;PMS7003;31781;54.094;13.428;2023-05-02T02:43:44;6.50;6.50;5.00
46044;PMS7003;31781;54.094;13.428;2023-05-02T02:45:55;4.00;4.00;3.50
46044;PMS7003;31781;54.094;13.428;2023-05-02T02:48:06;7.00;6.25;5.00
46044;PMS7003;31781;54.094;13.428;2023-05-02T02:50:23;6.50;6.50;4.75
46044;PMS7003;31781;54.094;13.428;2023-05-02T02:52:32;7.50;6.25;4.25
46044;PMS7003;31781;54.094;13.428;2023-05-02T02:54:43;6.25;6.25;5.00
46044;PMS7003;31781;54.094;13.428;2023-05-02T02:56:47;4.00;4.00;4.00
46044;PMS7003;31781;54.094;13.428;2023-05-02T02:58:56;4.25;4.25;3.00
46044;PMS7003;31781;54.094;13.428;2023-05-02T03:01:05;8.50;7.25;5.00
46044;PMS7003;31781;54.094;13.428;2023-05-02T03:03:15;5.50;5.50;4.50
46044;PMS7003;31781;54.094;13.428;2023-05-02T03:05:20;5.00;5.00;4.00
46044;PMS7003;31781;54.094;13.428;2023-05-02T03:07:23;6.50;6.50;4.00
46044;PMS7003;31781;54.094;13.428;2023-05-02T03:09:39;5.00;5.00;4.00
46044;PMS7003;31781;54.094;13.428;2023-05-02T03:11:41;10.00;6.50;5.00
46044;PMS7003;31781;54.094;13.428;2023-05-02T03:13:43;9.50;8.00;5.00
46044;PMS7003;31781;54.094;13.428;2023-05-02T03:16:06;9.00;7.50;5.00
46044;PMS7003;31781;54.094;13.428;2023-05-02T03:18:25;8.00;6.00;4.00
46044;PMS7003;31781;54.094;13.428;2023-05-02T03:20:28;10.25;8.75;6.00
46044;PMS7003;31781;54.094;13.428;2023-05-02T03:22:31;7.00;5.00;3.00
46044;PMS7003;31781;54.094;13.428;2023-05-02T03:24:32;11.75;9.00;7.00
46044;PMS7003;31781;54.094;13.428;2023-05-02T03:26:34;11.00;11.00;8.75
46044;PMS7003;31781;54.094;13.428;2023-05-02T03:28:36;8.25;6.50;5.00
46044;PMS7003;31781;54.094;13.428;2023-05-02T03:30:38;10.75;10.00;7.50
46044;PMS7003;31781;54.094;13.428;2023-05-02T03:32:40;9.50;9.50;8.25
46044;PMS7003;31781;54.094;13.428;2023-05-02T03:34:42;12.75;11.00;9.00
46044;PMS7003;31781;54.094;13.428;2023-05-02T03:36:45;8.00;8.00;5.00
46044;PMS7003;31781;54.094;13.428;2023-05-02T03:38:47;10.75;10.75;8.75
46044;PMS7003;31781;54.094;13.428;2023-05-02T03:40:49;14.50;12.25;8.00
46044;PMS7003;31781;54.094;13.428;2023-05-02T03:42:51;13.50;10.75;6.25
46044;PMS7003;31781;54.094;13.428;2023-05-02T03:44:53;16.50;15.00;9.25
46044;PMS7003;31781;54.094;13.428;2023-05-02T03:46:55;11.50;11.50;8.75
46044;PMS7003;31781;54.094;13.428;2023-05-02T03:48:57;18.50;16.75;12.00
46044;PMS7003;31781;54.094;13.428;2023-05-02T03:50:58;14.75;13.75;9.50
46044;PMS7003;31781;54.094;13.428;2023-05-02T03:53:02;15.25;12.75;8.75
46044;PMS7003;31781;54.094;13.428;2023-05-02T03:55:04;13.50;11.75;9.00
46044;PMS7003;31781;54.094;13.428;2023-05-02T03:57:07;15.50;14.75;11.00
46044;PMS7003;31781;54.094;13.428;2023-05-02T03:59:09;16.25;14.50;11.50
46044;PMS7003;31781;54.094;13.428;2023-05-02T04:01:14;11.25;9.00;8.75
46044;PMS7003;31781;54.094;13.428;2023-05-02T04:03:16;15.00;15.00;9.25
46044;PMS7003;31781;54.094;13.428;2023-05-02T04:05:18;13.00;13.00;10.75
46044;PMS7003;31781;54.094;13.428;2023-05-02T04:07:21;13.75;12.75;10.25
46044;PMS7003;31781;54.094;13.428;2023-05-02T04:09:26;15.00;13.75;11.00
46044;PMS7003;31781;54.094;13.428;2023-05-02T04:11:28;11.75;8.75;4.50
46044;PMS7003;31781;54.094;13.428;2023-05-02T04:13:30;15.25;11.25;8.50
46044;PMS7003;31781;54.094;13.428;2023-05-02T04:15:32;16.00;12.00;9.75
46044;PMS7003;31781;54.094;13.428;2023-05-02T04:17:34;14.50;12.50;9.00
46044;PMS7003;31781;54.094;13.428;2023-05-02T04:19:36;11.75;10.00;9.00
46044;PMS7003;31781;54.094;13.428;2023-05-02T04:21:37;13.00;11.00;8.00
46044;PMS7003;31781;54.094;13.428;2023-05-02T04:23:39;12.50;12.00;8.50
46044;PMS7003;31781;54.094;13.428;2023-05-02T04:25:43;12.00;12.00;8.75
46044;PMS7003;31781;54.094;13.428;2023-05-02T04:27:51;12.00;11.00;9.00
46044;PMS7003;31781;54.094;13.428;2023-05-02T04:29:53;17.25;15.75;9.75
46044;PMS7003;31781;54.094;13.428;2023-05-02T04:31:55;13.50;12.00;9.75
46044;PMS7003;31781;54.094;13.428;2023-05-02T04:33:56;13.00;13.00;9.75
46044;PMS7003;31781;54.094;13.428;2023-05-02T04:35:58;14.00;13.50;11.00
46044;PMS7003;31781;54.094;13.428;2023-05-02T04:38:00;18.75;17.25;11.25
46044;PMS7003;31781;54.094;13.428;2023-05-02T04:40:02;25.00;22.75;16.00
46044;PMS7003;31781;54.094;13.428;2023-05-02T04:42:06;28.00;27.50;18.50
46044;PMS7003;31781;54.094;13.428;2023-05-02T04:44:08;16.00;14.00;11.25
46044;PMS7003;31781;54.094;13.428;2023-05-02T04:46:09;13.75;13.75;10.25
46044;PMS7003;31781;54.094;13.428;2023-05-02T04:48:11;14.75;14.75;11.00
46044;PMS7003;31781;54.094;13.428;2023-05-02T04:50:13;15.50;13.00;8.75
46044;PMS7003;31781;54.094;13.428;2023-05-02T04:52:15;14.00;14.00;9.25
46044;PMS7003;31781;54.094;13.428;2023-05-02T04:54:17;15.50;14.75;10.00
46044;PMS7003;31781;54.094;13.428;2023-05-02T04:56:19;14.75;13.75;9.25
46044;PMS7003;31781;54.094;13.428;2023-05-02T04:58:22;9.25;9.25;5.00
46044;PMS7003;31781;54.094;13.428;2023-05-02T05:00:24;14.75;14.25;10.00
46044;PMS7003;31781;54.094;13.428;2023-05-02T05:02:26;14.50;12.75;10.00
46044;PMS7003;31781;54.094;13.428;2023-05-02T05:04:28;13.75;13.75;10.75
46044;PMS7003;31781;54.094;13.428;2023-05-02T05:06:30;13.75;13.75;9.75
46044;PMS7003;31781;54.094;13.428;2023-05-02T05:08:32;17.25;15.50;10.25
46044;PMS7003;31781;54.094;13.428;2023-05-02T05:10:33;22.75;20.75;12.00
46044;PMS7003;31781;54.094;13.428;2023-05-02T05:12:35;26.25;23.00;16.00
46044;PMS7003;31781;54.094;13.428;2023-05-02T05:14:41;13.50;13.00;7.50
46044;PMS7003;31781;54.094;13.428;2023-05-02T05:16:42;12.00;12.00;9.25
46044;PMS7003;31781;54.094;13.428;2023-05-02T05:18:46;17.25;15.50;10.50
46044;PMS7003;31781;54.094;13.428;2023-05-02T05:20:47;13.50;13.00;10.00
46044;PMS7003;31781;54.094;13.428;2023-05-02T05:22:52;16.25;13.75;10.00
46044;PMS7003;31781;54.094;13.428;2023-05-02T05:24:53;14.25;14.25;10.50
46044;PMS7003;31781;54.094;13.428;2023-05-02T05:26:55;19.25;15.00;10.25
46044;PMS7003;31781;54.094;13.428;2023-05-02T05:28:57;12.75;12.75;9.00
46044;PMS7003;31781;54.094;13.428;2023-05-02T05:31:05;12.00;10.00;8.00
46044;PMS7003;31781;54.094;13.428;2023-05-02T05:33:07;12.25;12.25;10.00
46044;PMS7003;31781;54.094;13.428;2023-05-02T05:35:09;11.50;10.50;7.75
46044;PMS7003;31781;54.094;13.428;2023-05-02T05:37:11;14.00;13.25;10.00
46044;PMS7003;31781;54.094;13.428;2023-05-02T05:39:13;15.25;13.75;10.25
46044;PMS7003;31781;54.094;13.428;2023-05-02T05:41:14;10.50;9.25;6.75
46044;PMS7003;31781;54.094;13.428;2023-05-02T05:43:16;7.00;6.25;4.25
46044;PMS7003;31781;54.094;13.428;2023-05-02T05:45:18;5.00;5.00;4.00
46044;PMS7003;31781;54.094;13.428;2023-05-02T05:47:21;4.00;4.00;4.00
46044;PMS7003;31781;54.094;13.428;2023-05-02T05:49:23;3.00;3.00;2.00
46044;PMS7003;31781;54.094;13.428;2023-05-02T05:51:26;1.75;1.75;1.00
46044;PMS7003;31781;54.094;13.428;2023-05-02T05:53:29;6.25;5.25;4.00
46044;PMS7003;31781;54.094;13.428;2023-05-02T05:55:31;6.50;5.00;3.75
46044;PMS7003;31781;54.094;13.428;2023-05-02T05:57:35;10.75;9.25;6.00
46044;PMS7003;31781;54.094;13.428;2023-05-02T05:59:37;6.00;6.00;4.25
46044;PMS7003;31781;54.094;13.428;2023-05-02T06:01:40;6.50;4.50;3.50
46044;PMS7003;31781;54.094;13.428;2023-05-02T06:03:43;3.00;3.00;3.00
46044;PMS7003;31781;54.094;13.428;2023-05-02T06:05:45;4.75;2.25;2.00
46044;PMS7003;31781;54.094;13.428;2023-05-02T06:07:46;2.00;2.00;1.00
46044;PMS7003;31781;54.094;13.428;2023-05-02T06:09:48;3.25;3.25;2.50
46044;PMS7003;31781;54.094;13.428;2023-05-02T06:11:50;9.00;5.00;4.00
46044;PMS7003;31781;54.094;13.428;2023-05-02T06:13:52;1.50;1.50;1.00
46044;PMS7003;31781;54.094;13.428;2023-05-02T06:15:54;6.00;4.00;3.00
46044;PMS7003;31781;54.094;13.428;2023-05-02T06:17:55;5.00;5.00;4.00
46044;PMS7003;31781;54.094;13.428;2023-05-02T06:19:59;3.50;3.50;2.50
46044;PMS7003;31781;54.094;13.428;2023-05-02T06:22:01;5.75;4.75;3.00
46044;PMS7003;31781;54.094;13.428;2023-05-02T06:24:03;3.75;3.75;3.00
46044;PMS7003;31781;54.094;13.428;2023-05-02T06:26:05;3.75;3.75;2.00
46044;PMS7003;31781;54.094;13.428;2023-05-02T06:28:07;5.00;4.75;3.50
46044;PMS7003;31781;54.094;13.428;2023-05-02T06:30:09;3.00;3.00;2.00
46044;PMS7003;31781;54.094;13.428;2023-05-02T06:32:12;4.50;3.25;2.00
46044;PMS7003;31781;54.094;13.428;2023-05-02T06:34:13;7.00;2.75;2.00
46044;PMS7003;31781;54.094;13.428;2023-05-02T06:36:16;3.00;3.00;3.00
46044;PMS7003;31781;54.094;13.428;2023-05-02T06:38:18;6.25;3.50;2.50
46044;PMS7003;31781;54.094;13.428;2023-05-02T06:40:20;2.50;2.50;2.00
46044;PMS7003;31781;54.094;13.428;2023-05-02T06:42:22;5.00;3.50;2.50
46044;PMS7003;31781;54.094;13.428;2023-05-02T06:44:23;4.50;4.50;2.75
46044;PMS7003;31781;54.094;13.428;2023-05-02T06:46:27;4.00;4.00;3.25
46044;PMS7003;31781;54.094;13.428;2023-05-02T06:48:29;3.25;3.25;2.25
46044;PMS7003;31781;54.094;13.428;2023-05-02T06:50:31;3.75;3.75;3.00
46044;PMS7003;31781;54.094;13.428;2023-05-02T06:52:34;2.50;2.50;2.00
46044;PMS7003;31781;54.094;13.428;2023-05-02T06:54:36;4.75;4.75;3.00
46044;PMS7003;31781;54.094;13.428;2023-05-02T06:56:38;3.25;3.25;2.75
46044;PMS7003;31781;54.094;13.428;2023-05-02T06:58:39;3.50;3.25;2.00
46044;PMS7003;31781;54.094;13.428;2023-05-02T07:00:41;2.50;2.00;1.50
46044;PMS7003;31781;54.094;13.428;2023-05-02T07:02:43;4.00;4.00;3.00
46044;PMS7003;31781;54.094;13.428;2023-05-02T07:04:46;3.00;3.00;2.50
46044;PMS7003;31781;54.094;13.428;2023-05-02T07:06:48;6.25;4.50;3.00
46044;PMS7003;31781;54.094;13.428;2023-05-02T07:08:51;4.25;4.25;1.75
46044;PMS7003;31781;54.094;13.428;2023-05-02T07:10:53;5.75;4.50;2.00
46044;PMS7003;31781;54.094;13.428;2023-05-02T07:12:54;5.25;4.00;2.75
46044;PMS7003;31781;54.094;13.428;2023-05-02T07:14:56;4.75;3.50;3.00
46044;PMS7003;31781;54.094;13.428;2023-05-02T07:16:57;3.00;3.00;2.75
46044;PMS7003;31781;54.094;13.428;2023-05-02T07:18:59;4.00;4.00;3.00
46044;PMS7003;31781;54.094;13.428;2023-05-02T07:21:01;4.00;4.00;3.00
46044;PMS7003;31781;54.094;13.428;2023-05-02T07:23:03;2.00;2.00;2.00
46044;PMS7003;31781;54.094;13.428;2023-05-02T07:25:06;3.00;3.00;3.00
46044;PMS7003;31781;54.094;13.428;2023-05-02T07:27:09;4.00;4.00;3.00
46044;PMS7003;31781;54.094;13.428;2023-05-02T07:29:11;5.00;3.50;2.00
46044;PMS7003;31781;54.094;13.428;2023-05-02T07:31:13;4.00;2.25;2.00
46044;PMS7003;31781;54.094;13.428;2023-05-02T07:33:18;3.00;3.00;2.00
46044;PMS7003;31781;54.094;13.428;2023-05-02T07:35:20;5.25;3.75;3.00
46044;PMS7003;31781;54.094;13.428;2023-05-02T07:37:21;4.25;4.25;2.50
46044;PMS7003;31781;54.094;13.428;2023-05-02T07:39:23;4.00;4.00;3.00
46044;PMS7003;31781;54.094;13.428;2023-05-02T07:41:27;4.25;3.00;2.00
46044;PMS7003;31781;54.094;13.428;2023-05-02T07:43:29;5.00;3.00;2.00
46044;PMS7003;31781;54.094;13.428;2023-05-02T07:45:30;3.25;3.25;2.25
46044;PMS7003;31781;54.094;13.428;2023-05-02T07:47:32;4.75;4.75;3.25
46044;PMS7003;31781;54.094;13.428;2023-05-02T07:49:34;10.75;10.75;10.50
46044;PMS7003;31781;54.094;13.428;2023-05-02T07:51:35;19.50;17.50;15.25
46044;PMS7003;31781;54.094;13.428;2023-05-02T07:53:37;13.50;12.00;10.00
46044;PMS7003;31781;54.094;13.428;2023-05-02T07:55:39;7.50;5.75;4.75
46044;PMS7003;31781;54.094;13.428;2023-05-02T07:57:42;2.25;2.25;1.75
46044;PMS7003;31781;54.094;13.428;2023-05-02T07:59:44;3.25;3.25;3.00
46044;PMS7003;31781;54.094;13.428;2023-05-02T08:01:46;4.25;3.00;2.00
46044;PMS7003;31781;54.094;13.428;2023-05-02T08:03:48;1.75;1.75;1.00
46044;PMS7003;31781;54.094;13.428;2023-05-02T08:05:50;3.00;1.00;1.00
46044;PMS7003;31781;54.094;13.428;2023-05-02T08:07:51;1.00;1.00;1.00
46044;PMS7003;31781;54.094;13.428;2023-05-02T08:09:53;5.25;1.25;1.00
46044;PMS7003;31781;54.094;13.428;2023-05-02T08:11:55;3.25;3.25;3.00
46044;PMS7003;31781;54.094;13.428;2023-05-02T08:13:58;3.25;3.25;2.50
46044;PMS7003;31781;54.094;13.428;2023-05-02T08:15:59;3.50;3.25;2.75
46044;PMS7003;31781;54.094;13.428;2023-05-02T08:18:01;2.00;2.00;2.00
46044;PMS7003;31781;54.094;13.428;2023-05-02T08:20:03;1.50;1.50;1.00
46044;PMS7003;31781;54.094;13.428;2023-05-02T08:22:06;4.25;4.25;3.50
46044;PMS7003;31781;54.094;13.428;2023-05-02T08:24:07;2.50;2.50;2.00
46044;PMS7003;31781;54.094;13.428;2023-05-02T08:26:09;5.00;4.00;3.00
46044;PMS7003;31781;54.094;13.428;2023-05-02T08:28:11;5.25;2.75;2.25
46044;PMS7003;31781;54.094;13.428;2023-05-02T08:30:14;2.50;2.50;1.75
46044;PMS7003;31781;54.094;13.428;2023-05-02T08:32:16;4.25;3.00;2.00
46044;PMS7003;31781;54.094;13.428;2023-05-02T08:34:18;5.50;4.00;3.00
46044;PMS7003;31781;54.094;13.428;2023-05-02T08:36:19;4.00;4.00;3.00
46044;PMS7003;31781;54.094;13.428;2023-05-02T08:38:21;5.00;4.00;3.00
46044;PMS7003;31781;54.094;13.428;2023-05-02T08:40:23;5.00;5.00;4.00
46044;PMS7003;31781;54.094;13.428;2023-05-02T08:42:41;3.00;3.00;2.50
46044;PMS7003;31781;54.094;13.428;2023-05-02T08:44:44;3.75;2.75;2.00
46044;PMS7003;31781;54.094;13.428;2023-05-02T08:46:47;2.75;2.75;2.00
46044;PMS7003;31781;54.094;13.428;2023-05-02T08:48:51;4.00;4.00;2.00
46044;PMS7003;31781;54.094;13.428;2023-05-02T08:50:54;6.25;5.00;3.75
46044;PMS7003;31781;54.094;13.428;2023-05-02T08:52:56;4.00;4.00;3.00
46044;PMS7003;31781;54.094;13.428;2023-05-02T08:54:59;3.25;3.25;2.00
46044;PMS7003;31781;54.094;13.428;2023-05-02T08:57:03;3.25;3.00;3.00
46044;PMS7003;31781;54.094;13.428;2023-05-02T08:59:05;4.75;3.25;3.00
46044;PMS7003;31781;54.094;13.428;2023-05-02T09:01:08;5.00;3.75;3.00
46044;PMS7003;31781;54.094;13.428;2023-05-02T09:03:19;5.25;3.50;3.00
46044;PMS7003;31781;54.094;13.428;2023-05-02T09:05:28;3.75;3.75;3.00
46044;PMS7003;31781;54.094;13.428;2023-05-02T09:07:44;4.25;4.25;3.00
46044;PMS7003;31781;54.094;13.428;2023-05-02T09:09:47;3.75;3.00;2.50
46044;PMS7003;31781;54.094;13.428;2023-05-02T09:11:49;3.75;2.75;2.00
46044;PMS7003;31781;54.094;13.428;2023-05-02T09:13:52;3.00;3.00;2.50
46044;PMS7003;31781;54.094;13.428;2023-05-02T09:15:57;4.00;2.00;2.00
46044;PMS7003;31781;54.094;13.428;2023-05-02T09:18:00;3.25;3.25;2.50
46044;PMS7003;31781;54.094;13.428;2023-05-02T09:20:05;3.00;3.00;2.00
46044;PMS7003;31781;54.094;13.428;2023-05-02T09:22:07;2.00;2.00;1.00
46044;PMS7003;31781;54.094;13.428;2023-05-02T09:24:19;3.00;3.00;2.75
46044;PMS7003;31781;54.094;13.428;2023-05-02T09:26:22;3.00;3.00;2.00
46044;PMS7003;31781;54.094;13.428;2023-05-02T09:28:38;3.75;3.00;2.00
46044;PMS7003;31781;54.094;13.428;2023-05-02T09:30:41;1.50;1.50;1.00
46044;PMS7003;31781;54.094;13.428;2023-05-02T09:32:43;2.25;2.25;2.00
46044;PMS7003;31781;54.094;13.428;2023-05-02T09:37:07;5.00;5.00;3.75
46044;PMS7003;31781;54.094;13.428;2023-05-02T09:39:09;6.00;5.00;4.25
46044;PMS7003;31781;54.094;13.428;2023-05-02T09:41:12;3.00;3.00;2.00
46044;PMS7003;31781;54.094;13.428;2023-05-02T09:43:14;3.25;3.00;2.00
46044;PMS7003;31781;54.094;13.428;2023-05-02T09:45:22;1.25;1.25;0.75
46044;PMS7003;31781;54.094;13.428;2023-05-02T09:47:25;4.00;4.00;2.75
46044;PMS7003;31781;54.094;13.428;2023-05-02T09:49:40;3.75;3.75;3.00
46044;PMS7003;31781;54.094;13.428;2023-05-02T09:51:44;3.00;3.00;2.00
46044;PMS7003;31781;54.094;13.428;2023-05-02T09:53:47;3.00;3.00;2.00
46044;PMS7003;31781;54.094;13.428;2023-05-02T09:55:58;3.00;3.00;2.00
46044;PMS7003;31781;54.094;13.428;2023-05-02T09:58:00;2.00;2.00;2.00
46044;PMS7003;31781;54.094;13.428;2023-05-02T10:00:02;2.00;2.00;1.00
46044;PMS7003;31781;54.094;13.428;2023-05-02T10:02:05;2.00;2.00;2.00
46044;PMS7003;31781;54.094;13.428;2023-05-02T10:04:08;3.00;3.00;2.50
46044;PMS7003;31781;54.094;13.428;2023-05-02T10:06:13;3.25;3.25;3.00
46044;PMS7003;31781;54.094;13.428;2023-05-02T10:08:17;4.25;3.00;2.00
46044;PMS7003;31781;54.094;13.428;2023-05-02T10:10:19;3.00;3.00;2.25
46044;PMS7003;31781;54.094;13.428;2023-05-02T10:12:21;0.00;0.00;0.00
46044;PMS7003;31781;54.094;13.428;2023-05-02T10:14:27;3.00;3.00;2.00
46044;PMS7003;31781;54.094;13.428;2023-05-02T10:16:29;2.00;2.00;2.00
46044;PMS7003;31781;54.094;13.428;2023-05-02T10:18:37;5.00;3.25;3.00
46044;PMS7003;31781;54.094;13.428;2023-05-02T10:20:46;0.00;0.00;0.00
46044;PMS7003;31781;54.094;13.428;2023-05-02T10:22:57;2.50;2.50;2.00
46044;PMS7003;31781;54.094;13.428;2023-05-02T10:25:02;3.75;3.50;3.00
46044;PMS7003;31781;54.094;13.428;2023-05-02T10:27:04;2.00;2.00;2.00
46044;PMS7003;31781;54.094;13.428;2023-05-02T10:29:06;2.75;2.75;2.00
46044;PMS7003;31781;54.094;13.428;2023-05-02T10:31:09;3.00;3.00;2.25
46044;PMS7003;31781;54.094;13.428;2023-05-02T10:33:12;4.50;1.75;1.25
46044;PMS7003;31781;54.094;13.428;2023-05-02T10:35:15;1.50;1.50;1.00
46044;PMS7003;31781;54.094;13.428;2023-05-02T10:37:17;3.00;3.00;2.00
46044;PMS7003;31781;54.094;13.428;2023-05-02T10:39:19;3.00;3.00;2.25
46044;PMS7003;31781;54.094;13.428;2023-05-02T10:41:24;3.00;3.00;2.00
46044;PMS7003;31781;54.094;13.428;2023-05-02T10:43:30;3.00;3.00;2.25
46044;PMS7003;31781;54.094;13.428;2023-05-02T10:45:34;3.00;3.00;2.00
46044;PMS7003;31781;54.094;13.428;2023-05-02T10:47:37;3.20;3.20;2.60
46044;PMS7003;31781;54.094;13.428;2023-05-02T10:49:48;2.40;2.40;2.00
46044;PMS7003;31781;54.094;13.428;2023-05-02T10:51:50;2.00;2.00;1.75
46044;PMS7003;31781;54.094;13.428;2023-05-02T10:53:52;3.00;3.00;2.00
46044;PMS7003;31781;54.094;13.428;2023-05-02T10:56:10;2.00;2.00;1.40
46044;PMS7003;31781;54.094;13.428;2023-05-02T10:58:21;4.20;3.40;2.80
46044;PMS7003;31781;54.094;13.428;2023-05-02T11:00:23;3.00;3.00;2.00
46044;PMS7003;31781;54.094;13.428;2023-05-02T11:05:00;2.00;2.00;1.60
46044;PMS7003;31781;54.094;13.428;2023-05-02T11:07:16;2.00;2.00;1.40
46044;PMS7003;31781;54.094;13.428;2023-05-02T11:09:31;1.00;1.00;1.00
46044;PMS7003;31781;54.094;13.428;2023-05-02T11:11:39;4.20;2.60;1.80
46044;PMS7003;31781;54.094;13.428;2023-05-02T11:13:51;3.00;3.00;2.40
46044;PMS7003;31781;54.094;13.428;2023-05-02T11:15:53;2.20;2.00;1.80
46044;PMS7003;31781;54.094;13.428;2023-05-02T11:17:59;1.80;1.80;1.80
46044;PMS7003;31781;54.094;13.428;2023-05-02T11:22:31;2.00;2.00;2.00
46044;PMS7003;31781;54.094;13.428;2023-05-02T11:24:37;1.20;1.20;1.00
46044;PMS7003;31781;54.094;13.428;2023-05-02T11:26:39;1.80;1.80;1.00
46044;PMS7003;31781;54.094;13.428;2023-05-02T11:28:41;2.00;1.80;1.80
46044;PMS7003;31781;54.094;13.428;2023-05-02T11:30:46;2.00;2.00;2.00
46044;PMS7003;31781;54.094;13.428;2023-05-02T11:35:15;3.40;3.40;2.40
46044;PMS7003;31781;54.094;13.428;2023-05-02T11:37:19;3.00;3.00;2.80
46044;PMS7003;31781;54.094;13.428;2023-05-02T11:39:20;1.60;1.60;1.20
46044;PMS7003;31781;54.094;13.428;2023-05-02T11:41:22;4.00;4.00;2.00
46044;PMS7003;31781;54.094;13.428;2023-05-02T11:43:38;2.00;2.00;2.00
46044;PMS7003;31781;54.094;13.428;2023-05-02T11:45:40;2.00;2.00;2.00
46044;PMS7003;31781;54.094;13.428;2023-05-02T11:47:43;2.00;2.00;1.80
46044;PMS7003;31781;54.094;13.428;2023-05-02T11:49:46;3.80;2.40;2.00
46044;PMS7003;31781;54.094;13.428;2023-05-02T11:51:48;2.00;2.00;1.20
46044;PMS7003;31781;54.094;13.428;2023-05-02T11:53:50;1.20;1.20;1.20
46044;PMS7003;31781;54.094;13.428;2023-05-02T11:55:53;3.60;2.00;1.80
46044;PMS7003;31781;54.094;13.428;2023-05-02T11:57:56;2.00;2.00;1.00
46044;PMS7003;31781;54.094;13.428;2023-05-02T11:59:59;2.00;2.00;1.00